sensor_id;sensor_type;location;lat;lon;timestamp;P1;durP1;ratioP1;P2;durP2;ratioP2
12445;SDS011;6287;50.984;7.022;2022-11-20T00:01:34;12.40;;;6.80;;
12445;SDS011;6287;50.984;7.022;2022-11-20T00:04:00;9.80;;;6.23;;
12445;SDS011;6287;50.984;7.022;2022-11-20T00:06:28;12.07;;;6.37;;
12445;SDS011;6287;50.984;7.022;2022-11-20T00:08:57;10.50;;;6.00;;
12445;SDS011;6287;50.984;7.022;2022-11-20T00:11:27;11.47;;;7.03;;
12445;SDS011;6287;50.984;7.022;2022-11-20T00:13:54;11.30;;;6.60;;
12445;SDS011;6287;50.984;7.022;2022-11-20T00:16:27;10.47;;;6.00;;
12445;SDS011;6287;50.984;7.022;2022-11-20T00:18:58;9.57;;;5.20;;
12445;SDS011;6287;50.984;7.022;2022-11-20T00:21:28;10.23;;;6.30;;
12445;SDS011;6287;50.984;7.022;2022-11-20T00:23:55;11.53;;;6.10;;
12445;SDS011;6287;50.984;7.022;2022-11-20T00:26:27;10.00;;;5.93;;
12445;SDS011;6287;50.984;7.022;2022-11-20T00:28:55;12.10;;;6.33;;
12445;SDS011;6287;50.984;7.022;2022-11-20T00:31:24;9.30;;;5.70;;
12445;SDS011;6287;50.984;7.022;2022-11-20T00:33:51;13.00;;;7.20;;
12445;SDS011;6287;50.984;7.022;2022-11-20T00:36:18;9.57;;;6.30;;
12445;SDS011;6287;50.984;7.022;2022-11-20T00:38:50;9.80;;;5.83;;
12445;SDS011;6287;50.984;7.022;2022-11-20T00:41:17;10.30;;;5.60;;
12445;SDS011;6287;50.984;7.022;2022-11-20T00:43:43;10.03;;;5.77;;
12445;SDS011;6287;50.984;7.022;2022-11-20T00:46:10;12.00;;;6.53;;
12445;SDS011;6287;50.984;7.022;2022-11-20T00:48:42;11.43;;;6.37;;
12445;SDS011;6287;50.984;7.022;2022-11-20T00:51:08;11.83;;;5.97;;
12445;SDS011;6287;50.984;7.022;2022-11-20T00:53:37;8.43;;;5.67;;
12445;SDS011;6287;50.984;7.022;2022-11-20T00:56:05;14.10;;;6.43;;
12445;SDS011;6287;50.984;7.022;2022-11-20T00:58:33;10.00;;;5.83;;
12445;SDS011;6287;50.984;7.022;2022-11-20T01:01:01;10.30;;;5.67;;
12445;SDS011;6287;50.984;7.022;2022-11-20T01:03:31;10.10;;;5.43;;
12445;SDS011;6287;50.984;7.022;2022-11-20T01:06:01;11.57;;;6.10;;
12445;SDS011;6287;50.984;7.022;2022-11-20T01:08:29;11.20;;;6.60;;
12445;SDS011;6287;50.984;7.022;2022-11-20T01:11:00;8.63;;;5.83;;
12445;SDS011;6287;50.984;7.022;2022-11-20T01:13:32;9.50;;;6.13;;
12445;SDS011;6287;50.984;7.022;2022-11-20T01:16:11;10.57;;;6.70;;
12445;SDS011;6287;50.984;7.022;2022-11-20T01:18:41;11.63;;;5.93;;
12445;SDS011;6287;50.984;7.022;2022-11-20T01:21:15;10.33;;;6.33;;
12445;SDS011;6287;50.984;7.022;2022-11-20T01:23:48;9.90;;;5.60;;
12445;SDS011;6287;50.984;7.022;2022-11-20T01:26:17;11.37;;;6.30;;
12445;SDS011;6287;50.984;7.022;2022-11-20T01:28:45;10.50;;;6.17;;
12445;SDS011;6287;50.984;7.022;2022-11-20T01:31:15;10.77;;;5.53;;
12445;SDS011;6287;50.984;7.022;2022-11-20T01:33:52;13.87;;;6.43;;
12445;SDS011;6287;50.984;7.022;2022-11-20T01:36:19;9.80;;;5.80;;
12445;SDS011;6287;50.984;7.022;2022-11-20T01:38:55;9.70;;;5.80;;
12445;SDS011;6287;50.984;7.022;2022-11-20T01:41:26;8.40;;;5.37;;
12445;SDS011;6287;50.984;7.022;2022-11-20T01:44:13;9.10;;;5.50;;
12445;SDS011;6287;50.984;7.022;2022-11-20T01:46:54;11.40;;;5.13;;
12445;SDS011;6287;50.984;7.022;2022-11-20T01:49:34;10.67;;;5.53;;
12445;SDS011;6287;50.984;7.022;2022-11-20T01:52:05;9.57;;;5.80;;
12445;SDS011;6287;50.984;7.022;2022-11-20T01:54:46;10.87;;;5.77;;
12445;SDS011;6287;50.984;7.022;2022-11-20T01:57:18;10.00;;;5.90;;
12445;SDS011;6287;50.984;7.022;2022-11-20T01:59:47;12.87;;;6.17;;
12445;SDS011;6287;50.984;7.022;2022-11-20T02:02:21;9.97;;;5.80;;
12445;SDS011;6287;50.984;7.022;2022-11-20T02:04:50;9.43;;;5.40;;
12445;SDS011;6287;50.984;7.022;2022-11-20T02:07:21;11.80;;;6.00;;
12445;SDS011;6287;50.984;7.022;2022-11-20T02:09:50;10.30;;;5.77;;
12445;SDS011;6287;50.984;7.022;2022-11-20T02:12:18;8.43;;;5.80;;
12445;SDS011;6287;50.984;7.022;2022-11-20T02:15:03;10.60;;;6.30;;
12445;SDS011;6287;50.984;7.022;2022-11-20T02:17:31;10.10;;;6.23;;
12445;SDS011;6287;50.984;7.022;2022-11-20T02:20:01;8.83;;;5.53;;
12445;SDS011;6287;50.984;7.022;2022-11-20T02:22:32;8.37;;;5.20;;
12445;SDS011;6287;50.984;7.022;2022-11-20T02:25:06;10.70;;;5.57;;
12445;SDS011;6287;50.984;7.022;2022-11-20T02:27:32;9.07;;;5.23;;
12445;SDS011;6287;50.984;7.022;2022-11-20T02:30:03;9.27;;;5.60;;
12445;SDS011;6287;50.984;7.022;2022-11-20T02:32:34;10.23;;;5.93;;
12445;SDS011;6287;50.984;7.022;2022-11-20T02:35:37;7.77;;;5.00;;
12445;SDS011;6287;50.984;7.022;2022-11-20T02:38:01;8.70;;;5.20;;
12445;SDS011;6287;50.984;7.022;2022-11-20T02:40:28;7.60;;;5.23;;
12445;SDS011;6287;50.984;7.022;2022-11-20T02:42:56;8.37;;;5.07;;
12445;SDS011;6287;50.984;7.022;2022-11-20T02:45:27;8.67;;;5.43;;
12445;SDS011;6287;50.984;7.022;2022-11-20T02:47:52;11.10;;;6.13;;
12445;SDS011;6287;50.984;7.022;2022-11-20T02:50:21;9.60;;;5.63;;
12445;SDS011;6287;50.984;7.022;2022-11-20T02:52:48;10.43;;;5.83;;
12445;SDS011;6287;50.984;7.022;2022-11-20T02:55:14;10.20;;;5.73;;
12445;SDS011;6287;50.984;7.022;2022-11-20T02:57:40;9.07;;;5.53;;
12445;SDS011;6287;50.984;7.022;2022-11-20T03:00:06;9.67;;;5.17;;
12445;SDS011;6287;50.984;7.022;2022-11-20T03:02:34;9.67;;;5.47;;
12445;SDS011;6287;50.984;7.022;2022-11-20T03:05:00;8.40;;;5.30;;
12445;SDS011;6287;50.984;7.022;2022-11-20T03:07:25;8.30;;;5.50;;
12445;SDS011;6287;50.984;7.022;2022-11-20T03:09:51;9.40;;;5.77;;
12445;SDS011;6287;50.984;7.022;2022-11-20T03:12:17;8.30;;;5.40;;
12445;SDS011;6287;50.984;7.022;2022-11-20T03:14:42;9.90;;;5.90;;
12445;SDS011;6287;50.984;7.022;2022-11-20T03:17:10;10.30;;;5.80;;
12445;SDS011;6287;50.984;7.022;2022-11-20T03:19:36;7.73;;;5.50;;
12445;SDS011;6287;50.984;7.022;2022-11-20T03:22:04;9.10;;;5.43;;
12445;SDS011;6287;50.984;7.022;2022-11-20T03:24:29;9.60;;;5.17;;
12445;SDS011;6287;50.984;7.022;2022-11-20T03:26:55;9.37;;;5.50;;
12445;SDS011;6287;50.984;7.022;2022-11-20T03:29:23;7.57;;;4.87;;
12445;SDS011;6287;50.984;7.022;2022-11-20T03:31:48;9.90;;;5.57;;
12445;SDS011;6287;50.984;7.022;2022-11-20T03:34:16;9.10;;;5.23;;
12445;SDS011;6287;50.984;7.022;2022-11-20T03:36:44;11.03;;;5.73;;
12445;SDS011;6287;50.984;7.022;2022-11-20T03:39:12;9.70;;;5.77;;
12445;SDS011;6287;50.984;7.022;2022-11-20T03:41:39;10.87;;;5.90;;
12445;SDS011;6287;50.984;7.022;2022-11-20T03:44:08;7.67;;;5.50;;
12445;SDS011;6287;50.984;7.022;2022-11-20T03:46:35;9.40;;;5.43;;
12445;SDS011;6287;50.984;7.022;2022-11-20T03:49:06;13.00;;;6.00;;
12445;SDS011;6287;50.984;7.022;2022-11-20T03:51:34;10.27;;;5.13;;
12445;SDS011;6287;50.984;7.022;2022-11-20T03:54:02;10.63;;;5.57;;
12445;SDS011;6287;50.984;7.022;2022-11-20T03:56:33;13.33;;;6.27;;
12445;SDS011;6287;50.984;7.022;2022-11-20T03:59:00;11.07;;;6.40;;
12445;SDS011;6287;50.984;7.022;2022-11-20T04:01:31;9.10;;;5.50;;
12445;SDS011;6287;50.984;7.022;2022-11-20T04:04:03;11.67;;;5.80;;
12445;SDS011;6287;50.984;7.022;2022-11-20T04:06:36;8.20;;;5.57;;
12445;SDS011;6287;50.984;7.022;2022-11-20T04:09:02;11.23;;;5.57;;
12445;SDS011;6287;50.984;7.022;2022-11-20T04:11:29;13.00;;;6.03;;
12445;SDS011;6287;50.984;7.022;2022-11-20T04:14:02;9.17;;;6.00;;
12445;SDS011;6287;50.984;7.022;2022-11-20T04:16:31;13.10;;;6.23;;
12445;SDS011;6287;50.984;7.022;2022-11-20T04:18:59;8.53;;;6.03;;
12445;SDS011;6287;50.984;7.022;2022-11-20T04:21:26;11.17;;;5.87;;
12445;SDS011;6287;50.984;7.022;2022-11-20T04:23:55;12.03;;;6.23;;
12445;SDS011;6287;50.984;7.022;2022-11-20T04:26:24;10.83;;;5.80;;
12445;SDS011;6287;50.984;7.022;2022-11-20T04:28:53;11.73;;;5.87;;
12445;SDS011;6287;50.984;7.022;2022-11-20T04:31:22;11.33;;;6.60;;
12445;SDS011;6287;50.984;7.022;2022-11-20T04:33:52;10.83;;;6.33;;
12445;SDS011;6287;50.984;7.022;2022-11-20T04:36:24;10.50;;;5.57;;
12445;SDS011;6287;50.984;7.022;2022-11-20T04:38:53;11.03;;;5.93;;
12445;SDS011;6287;50.984;7.022;2022-11-20T04:41:23;9.00;;;5.47;;
12445;SDS011;6287;50.984;7.022;2022-11-20T04:43:55;12.60;;;6.70;;
12445;SDS011;6287;50.984;7.022;2022-11-20T04:46:27;11.13;;;5.67;;
12445;SDS011;6287;50.984;7.022;2022-11-20T04:48:55;10.63;;;5.73;;
12445;SDS011;6287;50.984;7.022;2022-11-20T04:51:21;10.43;;;6.13;;
12445;SDS011;6287;50.984;7.022;2022-11-20T04:53:47;9.83;;;6.10;;
12445;SDS011;6287;50.984;7.022;2022-11-20T04:56:15;10.97;;;5.77;;
12445;SDS011;6287;50.984;7.022;2022-11-20T04:58:44;10.90;;;6.47;;
12445;SDS011;6287;50.984;7.022;2022-11-20T05:01:13;9.30;;;5.63;;
12445;SDS011;6287;50.984;7.022;2022-11-20T05:03:40;11.70;;;6.10;;
12445;SDS011;6287;50.984;7.022;2022-11-20T05:06:07;9.30;;;5.47;;
12445;SDS011;6287;50.984;7.022;2022-11-20T05:08:33;10.13;;;6.40;;
12445;SDS011;6287;50.984;7.022;2022-11-20T05:11:02;9.77;;;6.03;;
12445;SDS011;6287;50.984;7.022;2022-11-20T05:13:30;13.00;;;6.50;;
12445;SDS011;6287;50.984;7.022;2022-11-20T05:16:04;11.03;;;6.57;;
12445;SDS011;6287;50.984;7.022;2022-11-20T05:18:32;11.13;;;5.97;;
12445;SDS011;6287;50.984;7.022;2022-11-20T05:21:00;10.40;;;6.07;;
12445;SDS011;6287;50.984;7.022;2022-11-20T05:23:30;9.70;;;5.57;;
12445;SDS011;6287;50.984;7.022;2022-11-20T05:25:59;8.50;;;5.70;;
12445;SDS011;6287;50.984;7.022;2022-11-20T05:28:25;8.20;;;5.90;;
12445;SDS011;6287;50.984;7.022;2022-11-20T05:30:53;10.70;;;5.57;;
12445;SDS011;6287;50.984;7.022;2022-11-20T05:33:18;11.40;;;5.97;;
12445;SDS011;6287;50.984;7.022;2022-11-20T05:35:47;11.20;;;6.00;;
12445;SDS011;6287;50.984;7.022;2022-11-20T05:38:14;12.57;;;5.93;;
12445;SDS011;6287;50.984;7.022;2022-11-20T05:40:42;9.00;;;5.37;;
12445;SDS011;6287;50.984;7.022;2022-11-20T05:43:07;10.03;;;5.87;;
12445;SDS011;6287;50.984;7.022;2022-11-20T05:45:35;11.20;;;5.77;;
12445;SDS011;6287;50.984;7.022;2022-11-20T05:48:03;10.50;;;6.23;;
12445;SDS011;6287;50.984;7.022;2022-11-20T05:50:29;11.30;;;6.07;;
12445;SDS011;6287;50.984;7.022;2022-11-20T05:52:55;11.50;;;6.50;;
12445;SDS011;6287;50.984;7.022;2022-11-20T05:55:23;10.23;;;6.00;;
12445;SDS011;6287;50.984;7.022;2022-11-20T05:57:48;11.50;;;6.60;;
12445;SDS011;6287;50.984;7.022;2022-11-20T06:00:14;10.27;;;6.00;;
12445;SDS011;6287;50.984;7.022;2022-11-20T06:02:42;8.27;;;5.63;;
12445;SDS011;6287;50.984;7.022;2022-11-20T06:05:10;13.73;;;6.83;;
12445;SDS011;6287;50.984;7.022;2022-11-20T06:07:36;11.00;;;6.10;;
12445;SDS011;6287;50.984;7.022;2022-11-20T06:10:02;9.60;;;5.70;;
12445;SDS011;6287;50.984;7.022;2022-11-20T06:12:31;11.23;;;6.53;;
12445;SDS011;6287;50.984;7.022;2022-11-20T06:15:00;11.77;;;5.60;;
12445;SDS011;6287;50.984;7.022;2022-11-20T06:17:28;11.40;;;6.27;;
12445;SDS011;6287;50.984;7.022;2022-11-20T06:19:55;11.53;;;6.60;;
12445;SDS011;6287;50.984;7.022;2022-11-20T06:22:26;9.63;;;5.70;;
12445;SDS011;6287;50.984;7.022;2022-11-20T06:24:51;12.20;;;6.97;;
12445;SDS011;6287;50.984;7.022;2022-11-20T06:27:19;11.03;;;5.87;;
12445;SDS011;6287;50.984;7.022;2022-11-20T06:29:47;10.97;;;6.50;;
12445;SDS011;6287;50.984;7.022;2022-11-20T06:32:12;11.97;;;5.53;;
12445;SDS011;6287;50.984;7.022;2022-11-20T06:34:40;12.67;;;6.97;;
12445;SDS011;6287;50.984;7.022;2022-11-20T06:37:06;11.30;;;6.03;;
12445;SDS011;6287;50.984;7.022;2022-11-20T06:39:31;10.00;;;5.97;;
12445;SDS011;6287;50.984;7.022;2022-11-20T06:41:59;10.33;;;6.63;;
12445;SDS011;6287;50.984;7.022;2022-11-20T06:44:27;11.60;;;6.53;;
12445;SDS011;6287;50.984;7.022;2022-11-20T06:46:55;10.93;;;6.43;;
12445;SDS011;6287;50.984;7.022;2022-11-20T06:49:20;13.70;;;7.63;;
12445;SDS011;6287;50.984;7.022;2022-11-20T06:51:50;12.07;;;6.50;;
12445;SDS011;6287;50.984;7.022;2022-11-20T06:54:15;12.47;;;6.40;;
12445;SDS011;6287;50.984;7.022;2022-11-20T06:56:41;9.80;;;6.53;;
12445;SDS011;6287;50.984;7.022;2022-11-20T06:59:08;11.17;;;6.43;;
12445;SDS011;6287;50.984;7.022;2022-11-20T07:01:34;9.60;;;6.17;;
12445;SDS011;6287;50.984;7.022;2022-11-20T07:04:02;12.30;;;6.40;;
12445;SDS011;6287;50.984;7.022;2022-11-20T07:06:28;10.90;;;6.17;;
12445;SDS011;6287;50.984;7.022;2022-11-20T07:08:56;12.63;;;6.33;;
12445;SDS011;6287;50.984;7.022;2022-11-20T07:11:22;12.53;;;6.63;;
12445;SDS011;6287;50.984;7.022;2022-11-20T07:13:48;13.27;;;7.10;;
12445;SDS011;6287;50.984;7.022;2022-11-20T07:16:16;12.60;;;6.33;;
12445;SDS011;6287;50.984;7.022;2022-11-20T07:18:44;11.87;;;6.43;;
12445;SDS011;6287;50.984;7.022;2022-11-20T07:21:12;11.00;;;6.83;;
12445;SDS011;6287;50.984;7.022;2022-11-20T07:23:38;11.90;;;6.73;;
12445;SDS011;6287;50.984;7.022;2022-11-20T07:26:04;16.00;;;7.23;;
12445;SDS011;6287;50.984;7.022;2022-11-20T07:28:36;13.43;;;6.77;;
12445;SDS011;6287;50.984;7.022;2022-11-20T07:31:05;12.10;;;6.00;;
12445;SDS011;6287;50.984;7.022;2022-11-20T07:33:32;11.37;;;6.23;;
12445;SDS011;6287;50.984;7.022;2022-11-20T07:36:00;13.03;;;6.87;;
12445;SDS011;6287;50.984;7.022;2022-11-20T07:38:26;11.97;;;6.20;;
12445;SDS011;6287;50.984;7.022;2022-11-20T07:40:56;10.90;;;6.13;;
12445;SDS011;6287;50.984;7.022;2022-11-20T07:43:26;13.53;;;6.90;;
12445;SDS011;6287;50.984;7.022;2022-11-20T07:45:54;12.20;;;6.93;;
12445;SDS011;6287;50.984;7.022;2022-11-20T07:48:21;10.23;;;6.33;;
12445;SDS011;6287;50.984;7.022;2022-11-20T07:50:46;15.13;;;7.90;;
12445;SDS011;6287;50.984;7.022;2022-11-20T07:53:12;12.57;;;7.57;;
12445;SDS011;6287;50.984;7.022;2022-11-20T07:55:45;13.13;;;6.97;;
12445;SDS011;6287;50.984;7.022;2022-11-20T07:58:13;13.43;;;7.17;;
12445;SDS011;6287;50.984;7.022;2022-11-20T08:00:41;14.50;;;7.77;;
12445;SDS011;6287;50.984;7.022;2022-11-20T08:03:09;13.23;;;7.33;;
12445;SDS011;6287;50.984;7.022;2022-11-20T08:05:35;13.70;;;7.40;;
12445;SDS011;6287;50.984;7.022;2022-11-20T08:08:04;15.67;;;7.90;;
12445;SDS011;6287;50.984;7.022;2022-11-20T08:10:32;12.80;;;6.70;;
12445;SDS011;6287;50.984;7.022;2022-11-20T08:13:02;14.40;;;7.03;;
12445;SDS011;6287;50.984;7.022;2022-11-20T08:15:49;13.10;;;7.37;;
12445;SDS011;6287;50.984;7.022;2022-11-20T08:18:16;11.87;;;6.90;;
12445;SDS011;6287;50.984;7.022;2022-11-20T08:20:44;13.90;;;7.07;;
12445;SDS011;6287;50.984;7.022;2022-11-20T08:23:10;12.03;;;7.33;;
12445;SDS011;6287;50.984;7.022;2022-11-20T08:25:36;13.83;;;8.00;;
12445;SDS011;6287;50.984;7.022;2022-11-20T08:28:04;11.73;;;6.80;;
12445;SDS011;6287;50.984;7.022;2022-11-20T08:30:33;13.67;;;7.83;;
12445;SDS011;6287;50.984;7.022;2022-11-20T08:33:00;12.17;;;7.27;;
12445;SDS011;6287;50.984;7.022;2022-11-20T08:35:36;15.03;;;7.63;;
12445;SDS011;6287;50.984;7.022;2022-11-20T08:38:03;12.67;;;7.00;;
12445;SDS011;6287;50.984;7.022;2022-11-20T08:40:30;11.20;;;6.60;;
12445;SDS011;6287;50.984;7.022;2022-11-20T08:42:55;14.17;;;7.60;;
12445;SDS011;6287;50.984;7.022;2022-11-20T08:45:24;13.07;;;7.03;;
12445;SDS011;6287;50.984;7.022;2022-11-20T08:47:52;12.97;;;6.90;;
12445;SDS011;6287;50.984;7.022;2022-11-20T08:50:17;11.50;;;6.53;;
12445;SDS011;6287;50.984;7.022;2022-11-20T08:52:43;12.40;;;7.67;;
12445;SDS011;6287;50.984;7.022;2022-11-20T08:55:11;12.50;;;7.33;;
12445;SDS011;6287;50.984;7.022;2022-11-20T08:57:37;10.30;;;6.80;;
12445;SDS011;6287;50.984;7.022;2022-11-20T09:00:06;14.33;;;7.30;;
12445;SDS011;6287;50.984;7.022;2022-11-20T09:02:33;12.10;;;7.03;;
12445;SDS011;6287;50.984;7.022;2022-11-20T09:05:01;15.80;;;7.97;;
12445;SDS011;6287;50.984;7.022;2022-11-20T09:07:27;12.57;;;6.93;;
12445;SDS011;6287;50.984;7.022;2022-11-20T09:09:53;16.63;;;9.07;;
12445;SDS011;6287;50.984;7.022;2022-11-20T09:12:19;14.50;;;8.13;;
12445;SDS011;6287;50.984;7.022;2022-11-20T09:14:49;12.43;;;7.13;;
12445;SDS011;6287;50.984;7.022;2022-11-20T09:17:14;14.70;;;7.53;;
12445;SDS011;6287;50.984;7.022;2022-11-20T09:19:40;16.33;;;8.17;;
12445;SDS011;6287;50.984;7.022;2022-11-20T09:22:06;11.10;;;7.03;;
12445;SDS011;6287;50.984;7.022;2022-11-20T09:24:33;15.57;;;7.47;;
12445;SDS011;6287;50.984;7.022;2022-11-20T09:27:01;13.93;;;6.97;;
12445;SDS011;6287;50.984;7.022;2022-11-20T09:29:30;12.37;;;7.27;;
12445;SDS011;6287;50.984;7.022;2022-11-20T09:31:55;14.30;;;7.57;;
12445;SDS011;6287;50.984;7.022;2022-11-20T09:34:25;11.70;;;7.07;;
12445;SDS011;6287;50.984;7.022;2022-11-20T09:36:51;14.20;;;7.20;;
12445;SDS011;6287;50.984;7.022;2022-11-20T09:39:17;15.77;;;8.37;;
12445;SDS011;6287;50.984;7.022;2022-11-20T09:42:04;15.43;;;7.77;;
12445;SDS011;6287;50.984;7.022;2022-11-20T09:55:48;12.60;;;7.57;;
12445;SDS011;6287;50.984;7.022;2022-11-20T10:01:00;15.60;;;7.23;;
12445;SDS011;6287;50.984;7.022;2022-11-20T10:06:32;10.47;;;5.80;;
12445;SDS011;6287;50.984;7.022;2022-11-20T10:24:24;14.47;;;7.03;;
12445;SDS011;6287;50.984;7.022;2022-11-20T10:30:17;14.10;;;6.93;;
12445;SDS011;6287;50.984;7.022;2022-11-20T10:32:54;17.00;;;7.77;;
12445;SDS011;6287;50.984;7.022;2022-11-20T10:35:44;13.63;;;7.53;;
12445;SDS011;6287;50.984;7.022;2022-11-20T10:38:21;13.67;;;7.53;;
12445;SDS011;6287;50.984;7.022;2022-11-20T10:40:54;13.37;;;7.53;;
12445;SDS011;6287;50.984;7.022;2022-11-20T10:43:46;13.40;;;7.37;;
12445;SDS011;6287;50.984;7.022;2022-11-20T10:46:17;14.40;;;7.57;;
12445;SDS011;6287;50.984;7.022;2022-11-20T10:48:49;14.77;;;8.43;;
12445;SDS011;6287;50.984;7.022;2022-11-20T10:54:09;15.47;;;8.63;;
12445;SDS011;6287;50.984;7.022;2022-11-20T10:56:46;18.13;;;8.30;;
12445;SDS011;6287;50.984;7.022;2022-11-20T11:01:50;15.47;;;7.50;;
12445;SDS011;6287;50.984;7.022;2022-11-20T11:04:33;17.47;;;7.80;;
12445;SDS011;6287;50.984;7.022;2022-11-20T11:07:10;16.97;;;7.87;;
12445;SDS011;6287;50.984;7.022;2022-11-20T11:09:46;15.10;;;8.47;;
12445;SDS011;6287;50.984;7.022;2022-11-20T11:12:17;16.20;;;7.87;;
12445;SDS011;6287;50.984;7.022;2022-11-20T11:14:52;17.13;;;7.83;;
12445;SDS011;6287;50.984;7.022;2022-11-20T11:20:04;14.60;;;8.07;;
12445;SDS011;6287;50.984;7.022;2022-11-20T11:22:43;15.63;;;8.50;;
12445;SDS011;6287;50.984;7.022;2022-11-20T11:28:21;14.13;;;7.40;;
12445;SDS011;6287;50.984;7.022;2022-11-20T11:30:49;16.57;;;8.77;;
12445;SDS011;6287;50.984;7.022;2022-11-20T11:33:21;12.77;;;7.97;;
12445;SDS011;6287;50.984;7.022;2022-11-20T11:35:52;15.37;;;8.73;;
12445;SDS011;6287;50.984;7.022;2022-11-20T11:38:28;15.03;;;7.37;;
12445;SDS011;6287;50.984;7.022;2022-11-20T11:41:05;14.73;;;7.57;;
12445;SDS011;6287;50.984;7.022;2022-11-20T11:43:35;15.67;;;8.30;;
12445;SDS011;6287;50.984;7.022;2022-11-20T11:48:55;14.97;;;7.77;;
12445;SDS011;6287;50.984;7.022;2022-11-20T11:51:32;16.37;;;7.77;;
12445;SDS011;6287;50.984;7.022;2022-11-20T11:54:05;12.83;;;7.07;;
12445;SDS011;6287;50.984;7.022;2022-11-20T11:56:41;15.87;;;8.23;;
12445;SDS011;6287;50.984;7.022;2022-11-20T11:59:09;14.10;;;7.83;;
12445;SDS011;6287;50.984;7.022;2022-11-20T12:01:39;11.83;;;7.27;;
12445;SDS011;6287;50.984;7.022;2022-11-20T12:07:14;13.90;;;8.03;;
12445;SDS011;6287;50.984;7.022;2022-11-20T12:09:46;11.83;;;7.13;;
12445;SDS011;6287;50.984;7.022;2022-11-20T12:12:27;14.23;;;8.20;;
12445;SDS011;6287;50.984;7.022;2022-11-20T12:15:00;12.00;;;6.93;;
12445;SDS011;6287;50.984;7.022;2022-11-20T12:17:27;15.47;;;7.87;;
12445;SDS011;6287;50.984;7.022;2022-11-20T12:19:57;14.83;;;7.90;;
12445;SDS011;6287;50.984;7.022;2022-11-20T12:25:17;15.57;;;8.00;;
12445;SDS011;6287;50.984;7.022;2022-11-20T12:30:28;14.07;;;7.60;;
12445;SDS011;6287;50.984;7.022;2022-11-20T12:35:49;13.30;;;7.87;;
12445;SDS011;6287;50.984;7.022;2022-11-20T12:50:52;14.23;;;7.10;;
12445;SDS011;6287;50.984;7.022;2022-11-20T12:53:33;14.90;;;6.73;;
12445;SDS011;6287;50.984;7.022;2022-11-20T12:56:23;15.30;;;7.30;;
12445;SDS011;6287;50.984;7.022;2022-11-20T13:07:03;14.20;;;8.13;;
12445;SDS011;6287;50.984;7.022;2022-11-20T13:09:36;15.57;;;8.23;;
12445;SDS011;6287;50.984;7.022;2022-11-20T13:12:41;14.60;;;7.60;;
12445;SDS011;6287;50.984;7.022;2022-11-20T13:18:04;12.47;;;7.10;;
12445;SDS011;6287;50.984;7.022;2022-11-20T13:20:33;13.23;;;7.10;;
12445;SDS011;6287;50.984;7.022;2022-11-20T13:23:06;12.63;;;7.67;;
12445;SDS011;6287;50.984;7.022;2022-11-20T13:25:38;15.57;;;7.70;;
12445;SDS011;6287;50.984;7.022;2022-11-20T13:28:24;11.83;;;7.10;;
12445;SDS011;6287;50.984;7.022;2022-11-20T13:30:55;16.07;;;7.37;;
12445;SDS011;6287;50.984;7.022;2022-11-20T13:33:32;13.80;;;6.60;;
12445;SDS011;6287;50.984;7.022;2022-11-20T13:38:46;14.17;;;6.80;;
12445;SDS011;6287;50.984;7.022;2022-11-20T13:41:23;12.67;;;6.80;;
12445;SDS011;6287;50.984;7.022;2022-11-20T13:44:45;13.50;;;6.80;;
12445;SDS011;6287;50.984;7.022;2022-11-20T13:46:55;9.40;;;6.10;;
12445;SDS011;6287;50.984;7.022;2022-11-20T13:52:28;11.50;;;6.37;;
12445;SDS011;6287;50.984;7.022;2022-11-20T13:55:00;11.20;;;6.50;;
12445;SDS011;6287;50.984;7.022;2022-11-20T14:00:25;11.83;;;6.90;;
12445;SDS011;6287;50.984;7.022;2022-11-20T14:03:08;10.33;;;6.37;;
12445;SDS011;6287;50.984;7.022;2022-11-20T14:05:40;13.60;;;7.23;;
12445;SDS011;6287;50.984;7.022;2022-11-20T14:08:19;11.57;;;6.10;;
12445;SDS011;6287;50.984;7.022;2022-11-20T14:10:49;13.10;;;7.10;;
12445;SDS011;6287;50.984;7.022;2022-11-20T14:13:15;14.67;;;7.90;;
12445;SDS011;6287;50.984;7.022;2022-11-20T14:15:48;13.57;;;6.47;;
12445;SDS011;6287;50.984;7.022;2022-11-20T14:18:25;12.57;;;6.00;;
12445;SDS011;6287;50.984;7.022;2022-11-20T14:20:51;13.33;;;6.53;;
12445;SDS011;6287;50.984;7.022;2022-11-20T14:23:23;11.77;;;6.57;;
12445;SDS011;6287;50.984;7.022;2022-11-20T14:25:53;11.60;;;6.77;;
12445;SDS011;6287;50.984;7.022;2022-11-20T14:28:26;11.43;;;6.57;;
12445;SDS011;6287;50.984;7.022;2022-11-20T14:30:54;15.87;;;7.10;;
12445;SDS011;6287;50.984;7.022;2022-11-20T14:33:21;13.43;;;7.20;;
12445;SDS011;6287;50.984;7.022;2022-11-20T14:35:50;12.57;;;7.20;;
12445;SDS011;6287;50.984;7.022;2022-11-20T14:38:20;13.30;;;7.37;;
12445;SDS011;6287;50.984;7.022;2022-11-20T14:40:50;11.13;;;7.10;;
12445;SDS011;6287;50.984;7.022;2022-11-20T14:43:17;11.93;;;7.20;;
12445;SDS011;6287;50.984;7.022;2022-11-20T14:46:03;10.33;;;6.67;;
12445;SDS011;6287;50.984;7.022;2022-11-20T14:48:35;13.20;;;7.57;;
12445;SDS011;6287;50.984;7.022;2022-11-20T14:51:11;13.97;;;7.23;;
12445;SDS011;6287;50.984;7.022;2022-11-20T14:53:55;11.77;;;6.50;;
12445;SDS011;6287;50.984;7.022;2022-11-20T14:56:23;11.80;;;6.40;;
12445;SDS011;6287;50.984;7.022;2022-11-20T14:58:56;10.60;;;6.70;;
12445;SDS011;6287;50.984;7.022;2022-11-20T15:01:30;12.27;;;6.90;;
12445;SDS011;6287;50.984;7.022;2022-11-20T15:04:11;10.57;;;6.07;;
12445;SDS011;6287;50.984;7.022;2022-11-20T15:06:37;12.23;;;6.23;;
12445;SDS011;6287;50.984;7.022;2022-11-20T15:09:15;12.27;;;6.17;;
12445;SDS011;6287;50.984;7.022;2022-11-20T15:12:16;12.23;;;6.70;;
12445;SDS011;6287;50.984;7.022;2022-11-20T15:14:31;12.60;;;6.97;;
12445;SDS011;6287;50.984;7.022;2022-11-20T15:16:59;12.27;;;7.40;;
12445;SDS011;6287;50.984;7.022;2022-11-20T15:19:25;13.90;;;6.80;;
12445;SDS011;6287;50.984;7.022;2022-11-20T15:21:54;11.90;;;6.33;;
12445;SDS011;6287;50.984;7.022;2022-11-20T15:24:20;14.43;;;6.90;;
12445;SDS011;6287;50.984;7.022;2022-11-20T15:26:46;11.83;;;6.93;;
12445;SDS011;6287;50.984;7.022;2022-11-20T15:29:15;12.07;;;6.77;;
12445;SDS011;6287;50.984;7.022;2022-11-20T15:31:46;15.00;;;7.47;;
12445;SDS011;6287;50.984;7.022;2022-11-20T15:34:18;10.87;;;7.07;;
12445;SDS011;6287;50.984;7.022;2022-11-20T15:36:44;11.90;;;6.30;;
12445;SDS011;6287;50.984;7.022;2022-11-20T15:39:11;13.00;;;8.27;;
12445;SDS011;6287;50.984;7.022;2022-11-20T15:41:37;13.60;;;7.07;;
12445;SDS011;6287;50.984;7.022;2022-11-20T15:44:06;15.20;;;7.47;;
12445;SDS011;6287;50.984;7.022;2022-11-20T15:46:32;14.60;;;7.03;;
12445;SDS011;6287;50.984;7.022;2022-11-20T15:49:03;15.43;;;7.60;;
12445;SDS011;6287;50.984;7.022;2022-11-20T15:51:31;15.73;;;8.00;;
12445;SDS011;6287;50.984;7.022;2022-11-20T15:53:58;16.37;;;8.43;;
12445;SDS011;6287;50.984;7.022;2022-11-20T15:56:24;15.57;;;8.23;;
12445;SDS011;6287;50.984;7.022;2022-11-20T15:58:52;17.10;;;8.37;;
12445;SDS011;6287;50.984;7.022;2022-11-20T16:01:19;16.37;;;8.07;;
12445;SDS011;6287;50.984;7.022;2022-11-20T16:03:46;16.03;;;8.40;;
12445;SDS011;6287;50.984;7.022;2022-11-20T16:06:15;13.87;;;7.77;;
12445;SDS011;6287;50.984;7.022;2022-11-20T16:08:43;15.27;;;6.90;;
12445;SDS011;6287;50.984;7.022;2022-11-20T16:11:14;11.13;;;7.13;;
12445;SDS011;6287;50.984;7.022;2022-11-20T16:13:42;15.07;;;8.37;;
12445;SDS011;6287;50.984;7.022;2022-11-20T16:18:58;12.67;;;7.60;;
12445;SDS011;6287;50.984;7.022;2022-11-20T16:21:25;9.97;;;6.53;;
12445;SDS011;6287;50.984;7.022;2022-11-20T16:24:03;12.13;;;6.47;;
12445;SDS011;6287;50.984;7.022;2022-11-20T16:26:36;11.83;;;6.70;;
12445;SDS011;6287;50.984;7.022;2022-11-20T16:29:05;11.70;;;6.90;;
12445;SDS011;6287;50.984;7.022;2022-11-20T16:31:31;13.57;;;6.53;;
12445;SDS011;6287;50.984;7.022;2022-11-20T16:34:00;12.13;;;6.87;;
12445;SDS011;6287;50.984;7.022;2022-11-20T16:36:28;14.17;;;7.37;;
12445;SDS011;6287;50.984;7.022;2022-11-20T16:38:58;11.37;;;6.23;;
12445;SDS011;6287;50.984;7.022;2022-11-20T16:41:26;12.83;;;6.70;;
12445;SDS011;6287;50.984;7.022;2022-11-20T16:43:59;13.27;;;7.37;;